createdAt,value
2023-03-27T00:01:11.967Z,11.35
2023-03-27T00:03:40.176Z,14.85
2023-03-27T00:06:18.239Z,16.42
2023-03-27T00:08:46.614Z,15.07
2023-03-27T00:11:14.780Z,14.95
2023-03-27T00:13:48.858Z,14.70
2023-03-27T00:16:17.839Z,13.60
2023-03-27T00:18:45.958Z,14.77
2023-03-27T00:21:13.103Z,12.82
2023-03-27T00:23:40.580Z,13.80
2023-03-27T00:26:07.720Z,17.30
2023-03-27T00:28:35.639Z,12.15
2023-03-27T00:31:02.856Z,13.75
2023-03-27T00:33:29.600Z,14.98
2023-03-27T00:35:56.499Z,13.25
2023-03-27T00:38:24.371Z,11.93
2023-03-27T00:40:54.704Z,10.65
2023-03-27T00:43:28.344Z,11.57
2023-03-27T00:46:01.462Z,12.32
2023-03-27T00:48:31.036Z,11.00
2023-03-27T00:50:58.898Z,10.25
2023-03-27T00:53:28.640Z,9.82
2023-03-27T00:56:02.480Z,10.35
2023-03-27T00:58:39.629Z,13.73
2023-03-27T01:01:09.814Z,9.32
2023-03-27T01:03:36.987Z,14.52
2023-03-27T01:06:04.161Z,16.80
2023-03-27T01:08:33.864Z,9.77
2023-03-27T01:11:12.543Z,11.88
2023-03-27T01:13:54.435Z,12.68
2023-03-27T01:16:38.451Z,11.52
2023-03-27T01:19:39.095Z,12.65
2023-03-27T01:22:49.087Z,10.38
2023-03-27T01:25:18.888Z,13.35
2023-03-27T01:27:54.588Z,7.70
2023-03-27T01:30:31.599Z,9.68
2023-03-27T01:33:25.889Z,13.15
2023-03-27T01:36:18.929Z,11.18
2023-03-27T01:39:13.475Z,6.85
2023-03-27T01:41:46.452Z,9.00
2023-03-27T01:44:24.119Z,18.65
2023-03-27T01:46:57.181Z,10.52
2023-03-27T01:49:29.564Z,12.10
2023-03-27T01:52:00.551Z,21.88
2023-03-27T01:54:34.837Z,12.55
2023-03-27T01:57:16.043Z,9.52
2023-03-27T01:59:46.142Z,6.70
2023-03-27T02:02:31.021Z,11.95
2023-03-27T02:05:03.669Z,10.23
2023-03-27T02:07:37.144Z,9.35
2023-03-27T02:10:08.324Z,8.32
2023-03-27T02:12:49.900Z,7.25
2023-03-27T02:15:23.659Z,11.30
2023-03-27T02:18:19.106Z,7.85
2023-03-27T02:20:45.972Z,8.40
2023-03-27T02:23:12.824Z,10.25
2023-03-27T02:25:46.633Z,11.15
2023-03-27T02:28:31.639Z,13.90
2023-03-27T02:31:34.873Z,10.85
2023-03-27T02:34:42.731Z,11.25
2023-03-27T02:37:32.311Z,8.18
2023-03-27T02:40:05.371Z,7.88
2023-03-27T02:43:00.766Z,14.35
2023-03-27T02:45:48.784Z,8.00
2023-03-27T02:48:34.250Z,5.60
2023-03-27T02:51:22.773Z,10.85
2023-03-27T02:53:55.840Z,12.63
2023-03-27T02:56:26.286Z,11.85
2023-03-27T02:59:35.540Z,11.95
2023-03-27T03:04:42.033Z,9.50
2023-03-27T03:07:14.236Z,8.75
2023-03-27T03:09:42.564Z,6.97
2023-03-27T03:12:09.627Z,13.40
2023-03-27T03:14:44.300Z,5.32
2023-03-27T03:17:12.206Z,6.95
2023-03-27T03:19:38.933Z,9.73
2023-03-27T03:22:06.311Z,9.00
2023-03-27T03:24:35.543Z,8.35
2023-03-27T03:27:05.625Z,10.68
2023-03-27T03:29:37.011Z,8.98
2023-03-27T03:32:06.375Z,16.48
2023-03-27T03:37:02.464Z,7.00
2023-03-27T03:39:29.228Z,8.13
2023-03-27T03:41:56.084Z,10.15
2023-03-27T03:44:22.771Z,5.32
2023-03-27T03:46:49.395Z,4.10
2023-03-27T03:49:16.135Z,6.32
2023-03-27T03:51:42.777Z,8.02
2023-03-27T03:54:09.438Z,9.70
2023-03-27T03:56:37.320Z,5.38
2023-03-27T03:59:04.007Z,4.53
2023-03-27T04:01:30.661Z,6.18
2023-03-27T04:03:57.336Z,6.60
2023-03-27T04:06:25.748Z,6.32
2023-03-27T04:08:53.231Z,6.43
2023-03-27T04:11:20.731Z,5.97
2023-03-27T04:13:47.388Z,5.55
2023-03-27T04:16:14.458Z,5.22
2023-03-27T04:18:41.593Z,13.05
2023-03-27T04:21:16.082Z,7.50
2023-03-27T04:23:45.216Z,6.85
2023-03-27T04:26:12.603Z,5.65
2023-03-27T04:28:40.134Z,8.23
2023-03-27T04:31:08.440Z,6.25
2023-03-27T04:33:39.300Z,7.55
2023-03-27T04:36:07.939Z,6.75
2023-03-27T04:38:37.148Z,6.75
2023-03-27T04:41:05.276Z,6.00
2023-03-27T04:43:32.234Z,7.50
2023-03-27T04:45:58.879Z,8.25
2023-03-27T04:48:26.919Z,6.35
2023-03-27T04:50:53.608Z,7.63
2023-03-27T04:53:23.526Z,8.70
2023-03-27T04:55:53.218Z,6.82
2023-03-27T04:58:19.866Z,4.50
2023-03-27T05:00:50.549Z,7.00
2023-03-27T05:03:20.759Z,6.05
2023-03-27T05:05:49.712Z,3.35
2023-03-27T05:08:17.041Z,4.32
2023-03-27T05:10:44.427Z,4.32
2023-03-27T05:13:11.702Z,7.75
2023-03-27T05:15:39.172Z,6.10
2023-03-27T05:18:07.319Z,7.97
2023-03-27T05:20:35.432Z,8.13
2023-03-27T05:23:02.538Z,5.70
2023-03-27T05:25:31.033Z,5.82
2023-03-27T05:27:58.072Z,4.70
2023-03-27T05:30:26.899Z,9.02
2023-03-27T05:32:53.941Z,3.60
2023-03-27T05:35:23.852Z,9.57
2023-03-27T05:37:53.642Z,5.78
2023-03-27T05:40:22.785Z,6.05
2023-03-27T05:42:51.294Z,8.23
2023-03-27T05:45:18.805Z,5.90
2023-03-27T05:47:51.982Z,6.82
2023-03-27T05:50:20.774Z,4.35
2023-03-27T05:52:47.883Z,6.07
2023-03-27T05:55:17.251Z,5.13
2023-03-27T06:00:13.982Z,7.35
2023-03-27T06:02:43.383Z,6.60
2023-03-27T06:05:15.397Z,5.10
2023-03-27T06:07:43.588Z,5.72
2023-03-27T06:10:14.137Z,11.53
2023-03-27T06:12:41.954Z,7.38
2023-03-27T06:15:09.699Z,6.75
2023-03-27T06:17:38.634Z,5.15
2023-03-27T06:20:12.394Z,7.85
2023-03-27T06:22:45.743Z,6.40
2023-03-27T06:25:13.068Z,7.95
2023-03-27T06:27:42.143Z,7.85
2023-03-27T06:30:11.175Z,9.70
2023-03-27T06:32:43.687Z,7.88
2023-03-27T06:35:10.281Z,5.57
2023-03-27T06:37:37.073Z,4.75
2023-03-27T06:40:09.433Z,8.25
2023-03-27T06:42:39.437Z,10.77
2023-03-27T06:45:07.290Z,10.73
2023-03-27T06:47:44.390Z,13.18
2023-03-27T06:50:19.826Z,6.85
2023-03-27T06:52:48.350Z,5.28
2023-03-27T06:55:17.005Z,5.13
2023-03-27T06:57:49.373Z,5.23
2023-03-27T07:00:19.080Z,6.47
2023-03-27T07:02:53.771Z,8.55
2023-03-27T07:05:21.183Z,7.30
2023-03-27T07:07:49.439Z,5.50
2023-03-27T07:10:16.347Z,7.55
2023-03-27T07:12:51.020Z,9.55
2023-03-27T07:15:19.294Z,10.75
2023-03-27T07:17:53.730Z,8.23
2023-03-27T07:20:20.514Z,7.55
2023-03-27T07:22:47.253Z,12.52
2023-03-27T07:25:13.916Z,7.13
2023-03-27T07:27:40.757Z,7.10
2023-03-27T07:30:12.169Z,9.35
2023-03-27T07:32:41.837Z,8.98
2023-03-27T07:35:29.831Z,9.40
2023-03-27T07:37:56.574Z,8.15
2023-03-27T07:40:36.858Z,5.47
2023-03-27T07:43:07.349Z,9.23
2023-03-27T07:45:35.266Z,11.63
2023-03-27T07:48:17.189Z,11.85
2023-03-27T07:50:45.235Z,4.30
2023-03-27T07:53:33.975Z,7.63
2023-03-27T07:56:01.270Z,4.78
2023-03-27T07:58:28.041Z,11.18
2023-03-27T08:01:02.225Z,7.38
2023-03-27T08:03:30.856Z,10.23
2023-03-27T08:05:59.893Z,9.43
2023-03-27T08:08:27.177Z,5.30
2023-03-27T08:10:58.082Z,6.10
2023-03-27T08:13:25.726Z,7.25
2023-03-27T08:16:01.363Z,7.63
2023-03-27T08:18:28.027Z,7.95
2023-03-27T08:20:58.513Z,6.03
2023-03-27T08:23:27.358Z,7.80
2023-03-27T08:25:55.063Z,8.57
2023-03-27T08:28:22.090Z,9.43
2023-03-27T08:30:48.734Z,8.60
2023-03-27T08:33:19.525Z,7.85
2023-03-27T08:35:50.253Z,6.95
2023-03-27T08:38:26.126Z,8.15
2023-03-27T08:40:58.932Z,7.03
2023-03-27T08:43:29.951Z,8.25
2023-03-27T08:46:03.699Z,7.18
2023-03-27T08:48:55.050Z,8.13
2023-03-27T08:51:56.957Z,10.80
2023-03-27T08:54:29.881Z,7.15
2023-03-27T08:56:56.837Z,5.53
2023-03-27T08:59:27.682Z,7.68
2023-03-27T09:02:09.372Z,7.60
2023-03-27T09:04:42.224Z,8.95
2023-03-27T09:07:40.596Z,6.55
2023-03-27T09:10:17.513Z,8.10
2023-03-27T09:13:08.355Z,8.98
2023-03-27T09:15:43.615Z,5.95
2023-03-27T09:18:16.403Z,10.60
2023-03-27T09:20:47.607Z,12.10
2023-03-27T09:23:21.233Z,5.28
2023-03-27T09:25:53.545Z,7.22
2023-03-27T09:29:00.190Z,7.28
2023-03-27T09:31:31.885Z,10.65
2023-03-27T09:34:03.010Z,7.95
2023-03-27T09:36:29.989Z,6.60
2023-03-27T09:39:05.852Z,6.43
2023-03-27T09:41:55.374Z,6.85
2023-03-27T09:44:28.997Z,7.50
2023-03-27T09:47:01.007Z,6.72
2023-03-27T09:49:27.884Z,11.40
2023-03-27T09:51:56.875Z,8.93
2023-03-27T09:54:28.899Z,4.28
2023-03-27T09:57:11.046Z,12.98
2023-03-27T09:59:51.515Z,9.27
2023-03-27T10:02:29.522Z,5.35
2023-03-27T10:05:15.949Z,5.43
2023-03-27T10:07:43.459Z,5.57
2023-03-27T10:10:15.940Z,7.82
2023-03-27T10:12:43.731Z,7.63
2023-03-27T10:15:37.063Z,6.88
2023-03-27T10:18:08.270Z,6.05
2023-03-27T10:20:35.080Z,7.93
2023-03-27T10:23:08.109Z,6.30
2023-03-27T10:25:39.056Z,6.38
2023-03-27T10:28:15.489Z,6.88
2023-03-27T10:30:42.394Z,6.00
2023-03-27T10:33:09.313Z,5.80
2023-03-27T10:35:39.600Z,6.60
2023-03-27T10:38:19.318Z,7.43
2023-03-27T10:40:50.647Z,6.03
2023-03-27T10:43:27.078Z,7.68
2023-03-27T10:45:58.150Z,4.38
2023-03-27T10:48:39.723Z,5.68
2023-03-27T10:51:20.426Z,7.82
2023-03-27T10:53:55.049Z,6.43
2023-03-27T10:56:33.597Z,5.72
2023-03-27T10:59:06.137Z,5.93
2023-03-27T11:01:43.774Z,8.30
2023-03-27T11:04:27.054Z,6.13
2023-03-27T11:06:58.462Z,7.75
2023-03-27T11:09:36.436Z,7.63
2023-03-27T11:12:09.369Z,5.28
2023-03-27T11:14:59.268Z,3.97
2023-03-27T11:17:39.629Z,6.68
2023-03-27T11:20:18.128Z,4.95
2023-03-27T11:22:50.227Z,5.90
2023-03-27T11:25:25.105Z,6.35
2023-03-27T11:28:19.604Z,6.60
2023-03-27T11:30:59.334Z,6.10
2023-03-27T11:34:02.023Z,6.85
2023-03-27T11:36:40.437Z,5.00
2023-03-27T11:39:25.815Z,4.38
2023-03-27T11:41:57.284Z,5.50
2023-03-27T11:44:25.827Z,5.05
2023-03-27T11:47:19.692Z,6.35
2023-03-27T11:49:52.015Z,3.50
2023-03-27T11:52:39.844Z,4.05
2023-03-27T11:56:10.361Z,4.13
2023-03-27T11:59:04.492Z,4.65
2023-03-27T12:01:49.432Z,3.88
2023-03-27T12:04:43.517Z,5.35
2023-03-27T12:07:13.304Z,4.43
2023-03-27T12:09:48.779Z,8.18
2023-03-27T12:12:48.228Z,7.40
2023-03-27T12:15:36.894Z,10.45
2023-03-27T12:18:03.976Z,4.05
2023-03-27T12:20:54.076Z,5.22
2023-03-27T12:23:37.790Z,7.22
2023-03-27T12:26:39.373Z,8.30
2023-03-27T12:29:23.562Z,7.88
2023-03-27T12:32:25.015Z,4.18
2023-03-27T12:35:03.608Z,8.52
2023-03-27T12:37:49.423Z,5.90
2023-03-27T12:40:25.110Z,5.30
2023-03-27T12:42:54.624Z,5.88
2023-03-27T12:45:23.887Z,6.32
2023-03-27T12:48:10.151Z,4.65
2023-03-27T12:50:55.614Z,4.95
2023-03-27T12:53:25.561Z,4.10
2023-03-27T12:56:13.154Z,2.63
2023-03-27T12:58:41.001Z,2.50
2023-03-27T13:01:11.100Z,3.70
2023-03-27T13:04:16.525Z,1.20
2023-03-27T13:06:58.312Z,3.40
2023-03-27T13:09:33.466Z,3.35
2023-03-27T13:12:24.781Z,6.18
2023-03-27T13:14:57.421Z,3.55
2023-03-27T13:17:30.154Z,3.33
2023-03-27T13:20:30.517Z,3.83
2023-03-27T13:23:06.083Z,2.95
2023-03-27T13:26:00.123Z,4.28
2023-03-27T13:28:34.671Z,2.08
2023-03-27T13:31:04.466Z,2.88
2023-03-27T13:33:31.053Z,2.83
2023-03-27T13:35:57.832Z,2.45
2023-03-27T13:38:52.770Z,4.32
2023-03-27T13:41:51.890Z,3.45
2023-03-27T13:44:24.573Z,3.00
2023-03-27T13:47:18.238Z,4.80
2023-03-27T13:50:23.354Z,6.00
2023-03-27T13:53:08.351Z,3.28
2023-03-27T13:55:56.868Z,4.97
2023-03-27T13:59:07.910Z,2.03
2023-03-27T14:01:50.909Z,3.00
2023-03-27T14:04:51.852Z,2.10
2023-03-27T14:07:58.252Z,3.33
2023-03-27T14:10:37.049Z,2.58
2023-03-27T14:13:03.896Z,5.20
2023-03-27T14:15:43.093Z,3.63
2023-03-27T14:18:31.568Z,3.53
2023-03-27T14:21:06.280Z,2.40
2023-03-27T14:23:41.933Z,5.30
2023-03-27T14:26:18.179Z,5.97
2023-03-27T14:28:51.765Z,2.60
2023-03-27T14:31:20.500Z,4.50
2023-03-27T14:36:22.595Z,4.38
2023-03-27T14:38:49.213Z,3.28
2023-03-27T14:41:21.775Z,3.13
2023-03-27T14:43:49.261Z,3.70
2023-03-27T14:46:17.697Z,4.15
2023-03-27T14:48:46.595Z,2.28
2023-03-27T14:51:20.090Z,6.03
2023-03-27T14:53:50.959Z,3.70
2023-03-27T14:56:26.617Z,2.47
2023-03-27T14:58:57.524Z,5.68
2023-03-27T15:01:24.789Z,3.40
2023-03-27T15:03:53.026Z,4.50
2023-03-27T15:06:25.870Z,1.60
2023-03-27T15:09:00.023Z,1.98
2023-03-27T15:11:40.255Z,3.30
2023-03-27T15:14:16.709Z,3.13
2023-03-27T15:16:55.312Z,2.88
2023-03-27T15:19:29.891Z,3.95
2023-03-27T15:22:07.872Z,4.28
2023-03-27T15:24:49.391Z,3.70
2023-03-27T15:27:22.103Z,2.60
2023-03-27T15:29:57.800Z,2.22
2023-03-27T15:32:42.145Z,1.85
2023-03-27T15:35:18.148Z,2.65
2023-03-27T15:37:45.362Z,4.50
2023-03-27T15:40:14.601Z,3.38
2023-03-27T15:42:48.076Z,5.18
2023-03-27T15:45:21.418Z,4.80
2023-03-27T15:48:06.653Z,6.30
2023-03-27T15:50:34.180Z,3.85
2023-03-27T15:53:02.351Z,2.10
2023-03-27T15:55:44.349Z,2.35
2023-03-27T15:58:21.375Z,1.60
2023-03-27T16:00:50.945Z,2.45
2023-03-27T16:03:26.116Z,2.30
2023-03-27T16:05:56.469Z,2.53
2023-03-27T16:08:28.301Z,2.78
2023-03-27T16:10:55.941Z,1.17
2023-03-27T16:13:28.927Z,2.30
2023-03-27T16:16:19.915Z,2.90
2023-03-27T16:18:47.687Z,2.13
2023-03-27T16:21:14.614Z,2.58
2023-03-27T16:23:41.950Z,1.92
2023-03-27T16:26:14.779Z,1.80
2023-03-27T16:28:41.853Z,1.70
2023-03-27T16:31:13.974Z,2.83
2023-03-27T16:33:43.018Z,2.45
2023-03-27T16:36:24.383Z,2.83
2023-03-27T16:38:51.374Z,5.00
2023-03-27T16:41:18.284Z,3.03
2023-03-27T16:43:45.541Z,5.18
2023-03-27T16:46:22.969Z,3.83
2023-03-27T16:48:51.885Z,2.45
2023-03-27T16:51:20.758Z,1.83
2023-03-27T16:53:47.495Z,3.05
2023-03-27T16:56:14.306Z,3.97
2023-03-27T16:58:41.162Z,4.90
2023-03-27T17:01:09.032Z,3.78
2023-03-27T17:03:38.714Z,3.03
2023-03-27T17:06:11.455Z,3.28
2023-03-27T17:08:38.483Z,2.15
2023-03-27T17:11:10.745Z,3.17
2023-03-27T17:13:39.674Z,3.63
2023-03-27T17:16:07.757Z,2.22
2023-03-27T17:18:34.618Z,3.28
2023-03-27T17:21:01.339Z,2.03
2023-03-27T17:23:28.181Z,1.77
2023-03-27T17:25:55.028Z,3.47
2023-03-27T17:28:21.993Z,4.10
2023-03-27T17:30:57.014Z,2.65
2023-03-27T17:35:56.786Z,3.28
2023-03-27T17:38:24.169Z,1.50
2023-03-27T17:40:51.579Z,5.88
2023-03-27T17:43:18.495Z,2.03
2023-03-27T17:45:45.480Z,3.65
2023-03-27T17:48:12.514Z,3.15
2023-03-27T17:50:39.396Z,1.65
2023-03-27T17:53:06.987Z,3.90
2023-03-27T17:55:37.083Z,2.72
2023-03-27T17:58:09.290Z,2.33
2023-03-27T18:00:38.175Z,2.45
2023-03-27T18:03:05.022Z,3.83
2023-03-27T18:05:36.648Z,4.75
2023-03-27T18:08:04.265Z,2.95
2023-03-27T18:10:31.556Z,3.40
2023-03-27T18:12:59.318Z,2.70
2023-03-27T18:15:25.982Z,4.05
2023-03-27T18:17:52.999Z,8.70
2023-03-27T18:20:19.849Z,3.10
2023-03-27T18:22:47.227Z,4.55
2023-03-27T18:25:13.878Z,1.90
2023-03-27T18:27:40.816Z,2.50
2023-03-27T18:30:13.416Z,2.90
2023-03-27T18:32:42.736Z,3.58
2023-03-27T18:37:46.909Z,0.68
2023-03-27T18:40:15.815Z,2.67
2023-03-27T18:42:46.130Z,3.65
2023-03-27T18:45:14.510Z,1.75
2023-03-27T18:47:43.135Z,1.92
2023-03-27T18:50:14.357Z,2.58
2023-03-27T18:52:41.729Z,2.60
2023-03-27T18:55:09.783Z,3.13
2023-03-27T18:57:36.730Z,1.60
2023-03-27T19:00:07.565Z,3.85
2023-03-27T19:02:36.252Z,2.20
2023-03-27T19:05:04.913Z,2.80
2023-03-27T19:07:31.729Z,3.13
2023-03-27T19:09:58.954Z,2.03
2023-03-27T19:12:25.761Z,3.25
2023-03-27T19:14:52.440Z,1.35
2023-03-27T19:17:20.120Z,2.40
2023-03-27T19:19:47.019Z,3.35
2023-03-27T19:22:13.720Z,3.17
2023-03-27T19:24:41.294Z,2.65
2023-03-27T19:27:08.137Z,3.10
2023-03-27T19:29:51.056Z,2.92
2023-03-27T19:32:17.673Z,3.67
2023-03-27T19:34:44.690Z,2.00
2023-03-27T19:37:11.361Z,2.20
2023-03-27T19:39:38.130Z,3.17
2023-03-27T19:42:05.049Z,3.47
2023-03-27T19:44:31.906Z,3.53
2023-03-27T19:46:58.856Z,5.03
2023-03-27T19:49:26.545Z,4.15
2023-03-27T19:51:53.179Z,2.58
2023-03-27T19:54:19.807Z,2.80
2023-03-27T19:56:46.475Z,2.75
2023-03-27T19:59:29.885Z,4.10
2023-03-27T20:01:57.499Z,2.63
2023-03-27T20:04:24.158Z,3.25
2023-03-27T20:06:50.812Z,3.40
2023-03-27T20:09:17.518Z,5.47
2023-03-27T20:11:44.364Z,6.03
2023-03-27T20:14:11.422Z,4.28
2023-03-27T20:16:38.821Z,2.80
2023-03-27T20:19:06.942Z,3.05
2023-03-27T20:21:39.614Z,3.22
2023-03-27T20:24:09.935Z,3.92
2023-03-27T20:26:41.656Z,4.03
2023-03-27T20:29:13.706Z,3.38
2023-03-27T20:31:41.211Z,4.32
2023-03-27T20:34:09.328Z,6.45
2023-03-27T20:36:39.145Z,4.63
2023-03-27T20:39:07.987Z,3.90
2023-03-27T20:41:39.081Z,4.05
2023-03-27T20:44:14.991Z,4.57
2023-03-27T20:46:51.492Z,4.18
2023-03-27T20:49:40.181Z,1.77
2023-03-27T20:52:09.772Z,2.65
2023-03-27T20:54:36.545Z,3.42
2023-03-27T20:57:03.294Z,4.28
2023-03-27T20:59:31.042Z,8.27
2023-03-27T21:01:59.507Z,3.45
2023-03-27T21:04:28.169Z,2.33
2023-03-27T21:06:55.656Z,4.72
2023-03-27T21:09:23.542Z,3.42
2023-03-27T21:11:50.712Z,4.95
2023-03-27T21:14:17.476Z,1.92
2023-03-27T21:16:47.343Z,5.57
2023-03-27T21:19:14.061Z,6.65
2023-03-27T21:21:40.819Z,3.88
2023-03-27T21:24:07.666Z,3.33
2023-03-27T21:26:35.055Z,5.10
2023-03-27T21:29:01.745Z,5.22
2023-03-27T21:31:28.464Z,3.88
2023-03-27T21:33:55.385Z,5.28
2023-03-27T21:36:22.393Z,7.13
2023-03-27T21:38:49.359Z,5.22
2023-03-27T21:41:17.247Z,9.55
2023-03-27T21:43:44.121Z,4.45
2023-03-27T21:46:11.247Z,4.95
2023-03-27T21:48:40.738Z,3.97
2023-03-27T21:51:08.688Z,7.43
2023-03-27T21:53:36.201Z,6.30
2023-03-27T21:56:04.186Z,3.95
2023-03-27T21:58:31.032Z,5.35
2023-03-27T22:00:58.346Z,9.50
2023-03-27T22:03:26.461Z,4.25
2023-03-27T22:06:01.445Z,6.30
2023-03-27T22:08:38.268Z,5.18
2023-03-27T22:11:05.525Z,12.82
2023-03-27T22:13:33.992Z,5.15
2023-03-27T22:16:01.411Z,5.87
2023-03-27T22:18:28.276Z,3.28
2023-03-27T22:20:54.937Z,11.77
2023-03-27T22:23:21.774Z,3.75
2023-03-27T22:25:54.889Z,3.97
2023-03-27T22:28:21.635Z,5.78
2023-03-27T22:30:48.430Z,2.95
2023-03-27T22:33:15.085Z,7.65
2023-03-27T22:35:48.215Z,5.05
2023-03-27T22:38:16.264Z,6.70
2023-03-27T22:40:43.632Z,5.60
2023-03-27T22:43:10.395Z,3.78
2023-03-27T22:48:17.771Z,5.60
2023-03-27T22:50:45.793Z,4.60
2023-03-27T22:53:12.481Z,8.77
2023-03-27T22:55:39.319Z,8.30
2023-03-27T22:58:06.230Z,5.05
2023-03-27T23:00:33.233Z,6.53
2023-03-27T23:03:00.005Z,4.05
2023-03-27T23:05:27.447Z,4.15
2023-03-27T23:07:54.121Z,4.22
2023-03-27T23:10:21.079Z,3.67
2023-03-27T23:12:47.697Z,5.70
2023-03-27T23:15:14.547Z,8.65
2023-03-27T23:17:41.244Z,8.43
2023-03-27T23:20:08.247Z,10.55
2023-03-27T23:22:35.088Z,7.78
2023-03-27T23:25:01.733Z,8.13
2023-03-27T23:27:28.515Z,10.45
2023-03-27T23:29:58.297Z,3.50
2023-03-27T23:32:25.031Z,4.60
2023-03-27T23:34:54.789Z,4.03
2023-03-27T23:37:22.516Z,6.20
2023-03-27T23:39:49.182Z,4.78
2023-03-27T23:42:16.035Z,5.60
2023-03-27T23:44:42.791Z,9.02
2023-03-27T23:47:10.188Z,8.25
2023-03-27T23:49:37.169Z,8.77
2023-03-27T23:52:03.781Z,7.90
2023-03-27T23:54:30.862Z,6.13
2023-03-27T23:56:57.742Z,5.75
2023-03-27T23:59:24.523Z,4.35
